createdAt,value
2023-05-19T00:02:09.597Z,103080.09
2023-05-19T00:04:37.264Z,103076.59
2023-05-19T00:07:05.692Z,103076.69
2023-05-19T00:09:32.756Z,103075.81
2023-05-19T00:11:59.594Z,103072.16
2023-05-19T00:14:26.544Z,103073.94
2023-05-19T00:16:53.338Z,103073.28
2023-05-19T00:19:22.106Z,103075.97
2023-05-19T00:21:48.788Z,103078.50
2023-05-19T00:24:15.759Z,103069.97
2023-05-19T00:26:42.688Z,103076.13
2023-05-19T00:29:09.528Z,103077.84
2023-05-19T00:31:36.634Z,103068.06
2023-05-19T00:34:03.600Z,103073.53
2023-05-19T00:36:30.163Z,103066.50
2023-05-19T00:38:56.743Z,103062.16
2023-05-19T00:41:23.619Z,103071.94
2023-05-19T00:43:51.230Z,103066.50
2023-05-19T00:46:19.403Z,103068.47
2023-05-19T00:48:46.121Z,103066.66
2023-05-19T00:51:16.957Z,103063.44
2023-05-19T00:53:48.576Z,103070.50
2023-05-19T00:56:16.733Z,103065.03
2023-05-19T00:58:44.285Z,103067.69
2023-05-19T01:01:14.587Z,103063.47
2023-05-19T01:03:43.143Z,103068.63
2023-05-19T01:06:11.535Z,103068.59
2023-05-19T01:08:39.480Z,103065.16
2023-05-19T01:11:07.265Z,103064.44
2023-05-19T01:13:35.124Z,103065.16
2023-05-19T01:16:14.448Z,103057.22
2023-05-19T01:18:56.187Z,103045.22
2023-05-19T01:21:58.145Z,103049.47
2023-05-19T01:24:41.913Z,103053.78
2023-05-19T01:27:14.639Z,103057.19
2023-05-19T01:29:55.836Z,103052.13
2023-05-19T01:32:25.523Z,103044.22
2023-05-19T01:34:53.768Z,103042.53
2023-05-19T01:37:21.775Z,103027.59
2023-05-19T01:39:48.505Z,103038.16
2023-05-19T01:42:17.484Z,103048.72
2023-05-19T01:44:44.179Z,103038.97
2023-05-19T01:47:11.129Z,103038.97
2023-05-19T01:49:38.012Z,103032.75
2023-05-19T01:52:07.445Z,103036.28
2023-05-19T01:54:34.080Z,103015.28
2023-05-19T01:57:13.310Z,103027.44
2023-05-19T02:00:20.509Z,103023.84
2023-05-19T02:02:57.390Z,103032.78
2023-05-19T02:05:51.046Z,103028.59
2023-05-19T02:08:33.967Z,103027.66
2023-05-19T02:11:07.339Z,103035.53
2023-05-19T02:13:38.181Z,103032.84
2023-05-19T02:16:06.065Z,103033.72
2023-05-19T02:18:33.537Z,103026.13
2023-05-19T02:21:00.161Z,103024.47
2023-05-19T02:23:26.853Z,103018.09
2023-05-19T02:25:53.390Z,103019.75
2023-05-19T02:28:20.282Z,103021.53
2023-05-19T02:30:46.960Z,103006.63
2023-05-19T02:33:13.537Z,103010.25
2023-05-19T02:35:42.527Z,103010.22
2023-05-19T02:38:09.145Z,103012.09
2023-05-19T02:40:35.703Z,103007.59
2023-05-19T02:43:02.273Z,103007.56
2023-05-19T02:45:29.322Z,103015.53
2023-05-19T02:47:57.000Z,103005.94
2023-05-19T02:50:23.978Z,102989.53
2023-05-19T02:52:50.952Z,103003.59
2023-05-19T02:55:17.733Z,103000.03
2023-05-19T02:57:44.299Z,103002.66
2023-05-19T03:00:11.311Z,103002.78
2023-05-19T03:02:38.074Z,103003.56
2023-05-19T03:05:05.406Z,102997.34
2023-05-19T03:07:33.967Z,102988.81
2023-05-19T03:10:04.228Z,102999.25
2023-05-19T03:12:31.615Z,103002.00
2023-05-19T03:14:58.268Z,103001.94
2023-05-19T03:17:25.003Z,103002.78
2023-05-19T03:19:52.056Z,102998.41
2023-05-19T03:22:18.803Z,102994.13
2023-05-19T03:24:45.478Z,103002.06
2023-05-19T03:27:12.436Z,102993.25
2023-05-19T03:29:39.057Z,102991.56
2023-05-19T03:32:06.029Z,102995.84
2023-05-19T03:34:32.860Z,102989.06
2023-05-19T03:36:59.525Z,102988.13
2023-05-19T03:39:26.072Z,102989.81
2023-05-19T03:41:52.647Z,102985.38
2023-05-19T03:44:19.348Z,102987.19
2023-05-19T03:46:45.873Z,102989.91
2023-05-19T03:49:12.593Z,102991.75
2023-05-19T03:51:39.406Z,102980.28
2023-05-19T03:54:06.213Z,102982.88
2023-05-19T03:56:33.118Z,102981.31
2023-05-19T03:59:00.536Z,102978.72
2023-05-19T04:01:28.181Z,102984.19
2023-05-19T04:03:55.260Z,102988.56
2023-05-19T04:06:22.380Z,102985.81
2023-05-19T04:08:49.078Z,102984.88
2023-05-19T04:11:15.706Z,102980.53
2023-05-19T04:13:42.355Z,102984.00
2023-05-19T04:16:08.982Z,102980.38
2023-05-19T04:18:35.659Z,102989.78
2023-05-19T04:21:02.325Z,102988.91
2023-05-19T04:23:28.878Z,102994.22
2023-05-19T04:25:57.040Z,103000.44
2023-05-19T04:28:24.016Z,103000.41
2023-05-19T04:30:50.618Z,102995.06
2023-05-19T04:33:17.891Z,103006.59
2023-05-19T04:35:44.648Z,102995.94
2023-05-19T04:38:12.274Z,103002.06
2023-05-19T04:40:40.667Z,103000.31
2023-05-19T04:43:07.730Z,102995.84
2023-05-19T04:45:34.391Z,102997.41
2023-05-19T04:48:02.051Z,102997.28
2023-05-19T04:50:29.750Z,102991.09
2023-05-19T04:52:56.570Z,102991.84
2023-05-19T04:55:23.592Z,102998.59
2023-05-19T04:57:50.341Z,103001.28
2023-05-19T05:00:17.405Z,103001.25
2023-05-19T05:02:44.305Z,103005.66
2023-05-19T05:05:10.902Z,103005.63
2023-05-19T05:07:37.603Z,103003.88
2023-05-19T05:10:05.326Z,103004.72
2023-05-19T05:12:35.269Z,103007.19
2023-05-19T05:15:02.234Z,103009.84
2023-05-19T05:17:29.224Z,103012.34
2023-05-19T05:19:56.315Z,103006.13
2023-05-19T05:22:23.409Z,103020.84
2023-05-19T05:24:50.365Z,103024.16
2023-05-19T05:27:16.975Z,103022.94
2023-05-19T05:29:43.732Z,103017.50
2023-05-19T05:32:10.816Z,103023.56
2023-05-19T05:34:39.775Z,103024.09
2023-05-19T05:37:06.400Z,103021.09
2023-05-19T05:39:32.973Z,103019.00
2023-05-19T05:41:59.542Z,103010.81
2023-05-19T05:44:26.154Z,103019.22
2023-05-19T05:46:53.007Z,103017.97
2023-05-19T05:49:19.821Z,103021.31
2023-05-19T05:52:01.541Z,103019.13
2023-05-19T05:54:33.121Z,103028.28
2023-05-19T05:56:59.966Z,103012.16
2023-05-19T05:59:26.683Z,103021.25
2023-05-19T06:01:53.380Z,103020.09
2023-05-19T06:04:21.442Z,103026.63
2023-05-19T06:06:48.026Z,103023.53
2023-05-19T06:09:14.624Z,103024.78
2023-05-19T06:11:41.359Z,103019.06
2023-05-19T06:14:07.898Z,103023.72
2023-05-19T06:16:34.634Z,103029.56
2023-05-19T06:19:01.295Z,103019.25
2023-05-19T06:21:28.072Z,103021.31
2023-05-19T06:23:54.895Z,103015.59
2023-05-19T06:26:21.604Z,103023.34
2023-05-19T06:28:48.093Z,103016.88
2023-05-19T06:31:14.889Z,103013.41
2023-05-19T06:33:41.393Z,103016.72
2023-05-19T06:36:10.302Z,103018.75
2023-05-19T06:38:37.060Z,103015.78
2023-05-19T06:41:04.601Z,103014.66
2023-05-19T06:43:31.765Z,103014.44
2023-05-19T06:45:58.417Z,103011.28
2023-05-19T06:48:26.812Z,103005.81
2023-05-19T06:50:53.856Z,103007.94
2023-05-19T06:53:21.553Z,103004.97
2023-05-19T06:55:59.492Z,103005.56
2023-05-19T06:58:27.437Z,103012.91
2023-05-19T07:00:54.130Z,103001.47
2023-05-19T07:03:20.986Z,103003.41
2023-05-19T07:05:47.949Z,103015.59
2023-05-19T07:08:14.810Z,103007.81
2023-05-19T07:10:41.738Z,103008.78
2023-05-19T07:13:08.893Z,103007.38
2023-05-19T07:15:35.833Z,103009.97
2023-05-19T07:18:02.600Z,103010.16
2023-05-19T07:20:29.333Z,103002.84
2023-05-19T07:22:55.980Z,103012.72
2023-05-19T07:25:22.806Z,103013.03
2023-05-19T07:27:49.390Z,103015.59
2023-05-19T07:30:16.245Z,103012.72
2023-05-19T07:32:43.044Z,103014.88
2023-05-19T07:35:09.666Z,103009.56
2023-05-19T07:37:37.304Z,103012.72
2023-05-19T07:40:04.964Z,103012.25
2023-05-19T07:42:31.558Z,103013.53
2023-05-19T07:44:58.167Z,103005.72
2023-05-19T07:47:25.039Z,103004.31
2023-05-19T07:49:52.188Z,103003.94
2023-05-19T07:52:18.900Z,103005.41
2023-05-19T07:54:46.098Z,103004.16
2023-05-19T07:57:14.783Z,103005.06
2023-05-19T07:59:41.899Z,103005.91
2023-05-19T08:02:08.837Z,102999.28
2023-05-19T08:04:35.911Z,102996.38
2023-05-19T08:07:02.772Z,102997.59
2023-05-19T08:09:29.632Z,102996.13
2023-05-19T08:11:56.558Z,102990.84
2023-05-19T08:14:23.296Z,102989.09
2023-05-19T08:16:50.401Z,102996.38
2023-05-19T08:19:17.111Z,102987.22
2023-05-19T08:21:44.825Z,102993.03
2023-05-19T08:24:11.938Z,102991.63
2023-05-19T08:26:38.804Z,102977.38
2023-05-19T08:29:06.137Z,102979.25
2023-05-19T08:31:33.319Z,102974.28
2023-05-19T08:33:59.858Z,102987.72
2023-05-19T08:36:26.537Z,102978.59
2023-05-19T08:38:53.167Z,102969.88
2023-05-19T08:41:19.800Z,102974.78
2023-05-19T08:43:46.415Z,102972.00
2023-05-19T08:46:14.916Z,102962.88
2023-05-19T08:48:43.513Z,102967.00
2023-05-19T08:51:35.068Z,102966.50
2023-05-19T08:54:18.078Z,102956.34
2023-05-19T08:56:48.203Z,102956.75
2023-05-19T08:59:17.728Z,102958.06
2023-05-19T09:01:48.288Z,102957.91
2023-05-19T09:04:17.076Z,102954.09
2023-05-19T09:06:45.360Z,102948.88
2023-05-19T09:09:12.157Z,102946.16
2023-05-19T09:11:38.955Z,102944.53
2023-05-19T09:14:06.668Z,102943.47
2023-05-19T09:16:33.956Z,102938.50
2023-05-19T09:19:01.501Z,102945.06
2023-05-19T09:21:30.986Z,102936.97
2023-05-19T09:24:07.870Z,102940.31
2023-05-19T09:26:39.912Z,102939.13
2023-05-19T09:29:14.604Z,102929.78
2023-05-19T09:31:54.741Z,102940.34
2023-05-19T09:34:22.689Z,102934.25
2023-05-19T09:36:49.689Z,102937.34
2023-05-19T09:39:17.866Z,102942.59
2023-05-19T09:41:45.124Z,102941.06
2023-05-19T09:44:29.907Z,102930.63
2023-05-19T09:46:57.505Z,102947.09
2023-05-19T09:49:26.380Z,102944.78
2023-05-19T09:51:57.632Z,102945.72
2023-05-19T09:54:25.079Z,102949.09
2023-05-19T09:57:01.852Z,102946.94
2023-05-19T09:59:32.373Z,102937.44
2023-05-19T10:02:01.042Z,102940.75
2023-05-19T10:04:29.504Z,102941.44
2023-05-19T10:07:01.161Z,102939.53
2023-05-19T10:09:29.543Z,102933.28
2023-05-19T10:11:57.510Z,102929.78
2023-05-19T10:14:25.229Z,102934.19
2023-05-19T10:16:53.052Z,102933.13
2023-05-19T10:19:26.558Z,102924.78
2023-05-19T10:21:54.114Z,102929.22
2023-05-19T10:24:21.448Z,102927.31
2023-05-19T10:27:04.045Z,102930.19
2023-05-19T10:29:35.237Z,102924.22
2023-05-19T10:32:10.872Z,102919.06
2023-05-19T10:34:57.935Z,102920.56
2023-05-19T10:37:39.584Z,102924.25
2023-05-19T10:40:29.286Z,102917.78
2023-05-19T10:43:07.828Z,102912.09
2023-05-19T10:45:42.314Z,102909.38
2023-05-19T10:48:20.129Z,102904.69
2023-05-19T10:50:47.918Z,102909.59
2023-05-19T10:53:18.107Z,102906.13
2023-05-19T10:56:02.580Z,102906.84
2023-05-19T10:58:44.279Z,102900.09
2023-05-19T11:01:16.565Z,102886.22
2023-05-19T11:03:59.263Z,102909.41
2023-05-19T11:06:33.384Z,102905.38
2023-05-19T11:09:17.940Z,102902.41
2023-05-19T11:11:50.911Z,102905.38
2023-05-19T11:14:19.087Z,102901.53
2023-05-19T11:16:53.552Z,102903.47
2023-05-19T11:19:31.635Z,102896.75
2023-05-19T11:22:11.397Z,102890.25
2023-05-19T11:24:54.252Z,102900.59
2023-05-19T11:27:22.958Z,102893.59
2023-05-19T11:29:50.066Z,102890.72
2023-05-19T11:32:17.277Z,102896.50
2023-05-19T11:34:48.343Z,102885.19
2023-05-19T11:37:15.156Z,102887.47
2023-05-19T11:39:41.897Z,102877.41
2023-05-19T11:42:11.951Z,102868.78
2023-05-19T11:44:39.206Z,102888.69
2023-05-19T11:47:06.304Z,102885.41
2023-05-19T11:49:33.354Z,102890.31
2023-05-19T11:52:02.619Z,102891.16
2023-05-19T11:54:32.266Z,102877.69
2023-05-19T11:57:04.330Z,102880.19
2023-05-19T11:59:36.375Z,102881.31
2023-05-19T12:02:27.869Z,102884.47
2023-05-19T12:04:54.946Z,102888.88
2023-05-19T12:07:26.151Z,102886.88
2023-05-19T12:09:55.589Z,102881.50
2023-05-19T12:12:23.238Z,102877.13
2023-05-19T12:14:54.081Z,102880.13
2023-05-19T12:17:21.313Z,102877.81
2023-05-19T12:19:48.994Z,102872.88
2023-05-19T12:22:17.593Z,102866.06
2023-05-19T12:24:46.018Z,102873.91
2023-05-19T12:27:20.098Z,102872.50
2023-05-19T12:29:51.792Z,102867.84
2023-05-19T12:32:20.034Z,102869.00
2023-05-19T12:34:47.665Z,102866.47
2023-05-19T12:37:14.818Z,102862.28
2023-05-19T12:39:42.915Z,102863.75
2023-05-19T12:42:10.986Z,102860.41
2023-05-19T12:44:39.481Z,102860.44
2023-05-19T12:47:07.156Z,102845.84
2023-05-19T12:49:34.376Z,102847.34
2023-05-19T12:52:06.108Z,102842.50
2023-05-19T12:54:35.999Z,102845.47
2023-05-19T12:57:06.582Z,102848.06
2023-05-19T12:59:38.690Z,102838.81
2023-05-19T13:02:06.708Z,102833.44
2023-05-19T13:04:33.427Z,102843.56
2023-05-19T13:07:00.003Z,102837.47
2023-05-19T13:09:28.074Z,102847.97
2023-05-19T13:11:54.894Z,102849.19
2023-05-19T13:14:21.944Z,102836.41
2023-05-19T13:16:48.653Z,102833.84
2023-05-19T13:19:24.958Z,102835.38
2023-05-19T13:21:52.215Z,102821.31
2023-05-19T13:24:18.861Z,102826.25
2023-05-19T13:26:45.535Z,102824.06
2023-05-19T13:29:12.308Z,102828.56
2023-05-19T13:31:40.086Z,102830.22
2023-05-19T13:34:07.124Z,102836.25
2023-05-19T13:36:35.046Z,102823.78
2023-05-19T13:39:01.691Z,102824.88
2023-05-19T13:41:29.762Z,102819.75
2023-05-19T13:44:00.042Z,102816.78
2023-05-19T13:46:40.867Z,102814.59
2023-05-19T13:49:11.037Z,102803.31
2023-05-19T13:51:37.718Z,102812.44
2023-05-19T13:54:05.285Z,102821.03
2023-05-19T13:56:32.049Z,102806.22
2023-05-19T13:58:59.044Z,102820.34
2023-05-19T14:01:25.725Z,102813.56
2023-05-19T14:03:52.577Z,102807.34
2023-05-19T14:06:19.626Z,102795.97
2023-05-19T14:08:46.258Z,102799.16
2023-05-19T14:11:20.189Z,102793.75
2023-05-19T14:13:49.092Z,102786.53
2023-05-19T14:16:21.860Z,102788.47
2023-05-19T14:18:49.501Z,102797.16
2023-05-19T14:21:16.464Z,102788.38
2023-05-19T14:23:44.554Z,102784.47
2023-05-19T14:26:11.061Z,102786.63
2023-05-19T14:28:37.662Z,102777.59
2023-05-19T14:31:04.673Z,102791.56
2023-05-19T14:33:34.936Z,102783.28
2023-05-19T14:36:02.215Z,102784.25
2023-05-19T14:38:29.561Z,102775.13
2023-05-19T14:40:56.398Z,102772.91
2023-05-19T14:43:23.124Z,102779.72
2023-05-19T14:45:50.106Z,102773.69
2023-05-19T14:48:17.444Z,102771.75
2023-05-19T14:50:44.595Z,102773.25
2023-05-19T14:53:11.383Z,102766.50
2023-05-19T14:55:37.991Z,102763.81
2023-05-19T14:58:13.023Z,102773.66
2023-05-19T15:00:48.002Z,102773.81
2023-05-19T15:03:14.601Z,102768.00
2023-05-19T15:05:41.222Z,102759.19
2023-05-19T15:08:07.743Z,102757.69
2023-05-19T15:10:35.154Z,102757.47
2023-05-19T15:13:01.814Z,102758.66
2023-05-19T15:15:28.578Z,102760.47
2023-05-19T15:17:55.448Z,102757.59
2023-05-19T15:20:21.967Z,102749.53
2023-05-19T15:22:49.337Z,102758.53
2023-05-19T15:25:16.039Z,102759.28
2023-05-19T15:27:45.288Z,102751.66
2023-05-19T15:30:13.523Z,102754.88
2023-05-19T15:32:40.362Z,102755.50
2023-05-19T15:35:07.582Z,102763.13
2023-05-19T15:37:34.136Z,102763.13
2023-05-19T15:40:00.992Z,102748.00
2023-05-19T15:42:27.955Z,102750.34
2023-05-19T15:44:54.803Z,102746.16
2023-05-19T15:47:21.583Z,102742.19
2023-05-19T15:49:48.118Z,102744.56
2023-05-19T15:52:16.667Z,102741.34
2023-05-19T15:54:43.682Z,102741.22
2023-05-19T15:57:10.390Z,102732.63
2023-05-19T15:59:38.676Z,102735.00
2023-05-19T16:02:05.854Z,102734.88
2023-05-19T16:04:33.288Z,102718.03
2023-05-19T16:06:59.920Z,102718.56
2023-05-19T16:09:26.450Z,102723.41
2023-05-19T16:11:53.020Z,102721.03
2023-05-19T16:14:19.519Z,102718.34
2023-05-19T16:16:46.424Z,102716.84
2023-05-19T16:19:13.248Z,102713.94
2023-05-19T16:21:39.858Z,102712.66
2023-05-19T16:24:07.085Z,102719.38
2023-05-19T16:26:34.611Z,102713.16
2023-05-19T16:29:01.274Z,102711.75
2023-05-19T16:31:27.975Z,102714.97
2023-05-19T16:33:54.877Z,102701.50
2023-05-19T16:36:23.107Z,102708.38
2023-05-19T16:38:49.656Z,102716.75
2023-05-19T16:41:16.257Z,102716.13
2023-05-19T16:43:42.826Z,102708.25
2023-05-19T16:46:12.025Z,102705.78
2023-05-19T16:48:38.852Z,102714.59
2023-05-19T16:51:06.448Z,102708.56
2023-05-19T16:53:33.134Z,102702.28
2023-05-19T16:55:59.687Z,102702.84
2023-05-19T16:58:28.913Z,102700.69
2023-05-19T17:00:58.015Z,102711.19
2023-05-19T17:03:24.896Z,102710.25
2023-05-19T17:05:52.689Z,102709.59
2023-05-19T17:08:19.207Z,102720.91
2023-05-19T17:10:47.796Z,102710.69
2023-05-19T17:13:14.478Z,102718.72
2023-05-19T17:15:43.038Z,102706.31
2023-05-19T17:18:11.738Z,102714.28
2023-05-19T17:20:38.817Z,102714.41
2023-05-19T17:23:05.514Z,102703.84
2023-05-19T17:25:32.969Z,102706.31
2023-05-19T17:27:59.535Z,102710.25
2023-05-19T17:30:26.032Z,102711.78
2023-05-19T17:32:53.012Z,102708.63
2023-05-19T17:35:20.147Z,102700.41
2023-05-19T17:37:46.798Z,102704.22
2023-05-19T17:40:13.989Z,102704.91
2023-05-19T17:42:40.888Z,102699.25
2023-05-19T17:45:08.177Z,102703.25
2023-05-19T17:47:41.164Z,102713.09
2023-05-19T17:50:08.579Z,102709.47
2023-05-19T17:52:35.588Z,102701.63
2023-05-19T17:55:02.378Z,102708.59
2023-05-19T17:57:32.596Z,102718.38
2023-05-19T18:00:00.371Z,102720.78
2023-05-19T18:02:27.439Z,102711.41
2023-05-19T18:04:54.374Z,102716.56
2023-05-19T18:07:22.122Z,102715.13
2023-05-19T18:09:51.513Z,102715.81
2023-05-19T18:12:18.225Z,102712.56
2023-05-19T18:14:44.784Z,102716.88
2023-05-19T18:17:11.792Z,102715.78
2023-05-19T18:19:38.381Z,102718.38
2023-05-19T18:22:05.269Z,102726.59
2023-05-19T18:24:32.003Z,102725.06
2023-05-19T18:26:58.957Z,102728.69
2023-05-19T18:29:25.754Z,102726.28
2023-05-19T18:31:52.673Z,102730.34
2023-05-19T18:34:19.345Z,102732.53
2023-05-19T18:36:45.906Z,102731.28
2023-05-19T18:39:12.459Z,102737.59
2023-05-19T18:41:41.330Z,102745.97
2023-05-19T18:44:08.377Z,102736.69
2023-05-19T18:46:36.776Z,102736.09
2023-05-19T18:49:05.344Z,102744.56
2023-05-19T18:51:34.591Z,102744.66
2023-05-19T18:54:01.157Z,102749.31
2023-05-19T18:56:30.988Z,102752.34
2023-05-19T18:58:57.746Z,102753.66
2023-05-19T19:01:24.981Z,102763.69
2023-05-19T19:03:51.736Z,102749.31
2023-05-19T19:06:18.443Z,102752.91
2023-05-19T19:08:45.250Z,102769.03
2023-05-19T19:11:14.230Z,102761.28
2023-05-19T19:13:41.171Z,102760.59
2023-05-19T19:16:07.885Z,102751.88
2023-05-19T19:18:36.647Z,102770.69
2023-05-19T19:21:05.882Z,102771.09
2023-05-19T19:23:34.113Z,102773.25
2023-05-19T19:26:00.883Z,102769.97
2023-05-19T19:28:27.725Z,102759.81
2023-05-19T19:30:54.428Z,102771.28
2023-05-19T19:33:21.036Z,102766.88
2023-05-19T19:35:47.739Z,102762.81
2023-05-19T19:38:14.436Z,102776.09
2023-05-19T19:40:41.244Z,102770.66
2023-05-19T19:43:07.836Z,102775.16
2023-05-19T19:45:34.975Z,102796.44
2023-05-19T19:48:02.008Z,102794.09
2023-05-19T19:50:28.880Z,102791.34
2023-05-19T19:52:55.603Z,102800.38
2023-05-19T19:55:22.390Z,102799.94
2023-05-19T19:57:51.152Z,102789.25
2023-05-19T20:00:19.530Z,102803.38
2023-05-19T20:05:18.225Z,102801.56
2023-05-19T20:07:44.866Z,102806.44
2023-05-19T20:10:11.503Z,102805.56
2023-05-19T20:12:38.278Z,102803.16
2023-05-19T20:15:06.370Z,102798.66
2023-05-19T20:17:33.190Z,102815.38
2023-05-19T20:20:02.255Z,102810.31
2023-05-19T20:22:29.095Z,102820.19
2023-05-19T20:24:55.607Z,102821.84
2023-05-19T20:27:22.482Z,102824.13
2023-05-19T20:29:49.184Z,102826.66
2023-05-19T20:32:15.914Z,102825.31
2023-05-19T20:34:42.713Z,102830.50
2023-05-19T20:37:09.374Z,102831.75
2023-05-19T20:39:36.084Z,102838.22
2023-05-19T20:42:02.723Z,102832.00
2023-05-19T20:44:29.676Z,102833.03
2023-05-19T20:46:57.227Z,102842.91
2023-05-19T20:49:23.934Z,102845.66
2023-05-19T20:51:50.805Z,102842.38
2023-05-19T20:54:19.551Z,102837.47
2023-05-19T20:56:46.382Z,102837.34
2023-05-19T20:59:13.039Z,102839.94
2023-05-19T21:01:41.019Z,102839.16
2023-05-19T21:04:08.072Z,102843.72
2023-05-19T21:06:35.108Z,102837.00
2023-05-19T21:09:04.981Z,102845.16
2023-05-19T21:11:31.805Z,102848.53
2023-05-19T21:13:58.646Z,102846.94
2023-05-19T21:16:26.161Z,102847.25
2023-05-19T21:18:53.292Z,102845.59
2023-05-19T21:21:20.504Z,102851.94
2023-05-19T21:23:47.067Z,102850.38
2023-05-19T21:26:13.632Z,102847.31
2023-05-19T21:28:40.295Z,102852.63
2023-05-19T21:31:07.148Z,102860.06
2023-05-19T21:33:33.729Z,102857.25
2023-05-19T21:36:00.630Z,102853.81
2023-05-19T21:38:27.693Z,102859.34
2023-05-19T21:40:54.670Z,102857.94
2023-05-19T21:43:21.964Z,102870.31
2023-05-19T21:45:48.807Z,102869.75
2023-05-19T21:48:15.589Z,102874.00
2023-05-19T21:50:42.508Z,102876.25
2023-05-19T21:53:09.514Z,102871.06
2023-05-19T21:55:37.406Z,102883.81
2023-05-19T21:58:05.645Z,102885.53
2023-05-19T22:00:34.247Z,102879.47
2023-05-19T22:03:01.473Z,102870.59
2023-05-19T22:05:32.290Z,102871.75
2023-05-19T22:07:58.960Z,102875.66
2023-05-19T22:10:25.566Z,102873.84
2023-05-19T22:12:52.475Z,102879.38
2023-05-19T22:15:19.074Z,102880.31
2023-05-19T22:17:45.706Z,102875.22
2023-05-19T22:20:12.767Z,102878.00
2023-05-19T22:22:39.588Z,102871.88
2023-05-19T22:25:07.144Z,102873.97
2023-05-19T22:27:33.777Z,102873.03
2023-05-19T22:30:00.796Z,102870.44
2023-05-19T22:32:27.487Z,102873.97
2023-05-19T22:34:54.465Z,102862.94
2023-05-19T22:37:22.907Z,102869.31
2023-05-19T22:39:49.515Z,102860.00
2023-05-19T22:42:16.260Z,102864.13
2023-05-19T22:44:43.427Z,102861.69
2023-05-19T22:47:13.653Z,102853.56
2023-05-19T22:49:41.202Z,102864.41
2023-05-19T22:52:11.130Z,102869.81
2023-05-19T22:54:38.659Z,102869.94
2023-05-19T22:57:05.783Z,102870.97
2023-05-19T22:59:32.672Z,102868.53
2023-05-19T23:01:59.462Z,102870.09
2023-05-19T23:04:26.382Z,102870.38
2023-05-19T23:06:54.614Z,102871.91
2023-05-19T23:09:21.907Z,102876.50
2023-05-19T23:11:48.910Z,102880.28
2023-05-19T23:14:15.753Z,102877.78
2023-05-19T23:16:42.991Z,102858.47
2023-05-19T23:19:10.113Z,102874.91
2023-05-19T23:21:36.713Z,102869.66
2023-05-19T23:24:03.887Z,102875.72
2023-05-19T23:26:30.882Z,102865.34
2023-05-19T23:28:57.523Z,102864.81
2023-05-19T23:31:24.742Z,102870.72
2023-05-19T23:33:51.396Z,102868.31
2023-05-19T23:36:18.247Z,102876.50
2023-05-19T23:38:45.646Z,102864.31
2023-05-19T23:41:12.537Z,102860.13
2023-05-19T23:43:42.766Z,102866.19
2023-05-19T23:46:09.880Z,102866.19
2023-05-19T23:48:36.811Z,102854.88
2023-05-19T23:51:05.765Z,102859.47
2023-05-19T23:53:32.801Z,102856.97
2023-05-19T23:55:59.426Z,102861.69
2023-05-19T23:58:26.013Z,102853.03
